Time;durP1;ratioP1;P1;durP2;ratioP2;P2;SDS_P1;SDS_P2;PMS_P1;PMS_P2;Temp;Humidity;BMP_temperature;BMP_pressure;BME280_temperature;BME280_humidity;BME280_pressure;Samples;Min_cycle;Max_cycle;Signal;HPM_P1;HPM_P2
2022/04/22 00:01:34;;;;;;;;;;;9.00;1.00;;;;;;5013634;28;20360;-79
2022/04/22 00:04:00;;;;;;;;;;;;;;;;;;5018966;28;19919;-79
2022/04/22 00:06:27;;;;;;;;;;;9.00;1.00;;;;;;5024039;28;20397;-79
2022/04/22 00:08:53;;;;;;;;;;;8.90;1.00;;;;;;5018273;28;19914;-79
2022/04/22 00:11:31;;;;;;;;;;;;;;;;;;5008639;28;20000;-79
2022/04/22 00:13:57;;;;;;;;;;;8.70;1.00;;;;;;5012292;28;19913;-79
2022/04/22 00:16:23;;;;;;;;;;;;;;;;;;5016928;28;20344;-79
2022/04/22 00:18:49;;;;;;;;;;;8.50;1.00;;;;;;5020731;28;19905;-79
2022/04/22 00:21:15;;;;;;;;;;;;;;;;;;5024373;28;19935;-79
2022/04/22 00:23:40;;;;;;;;;;;8.30;1.00;;;;;;5013483;28;19913;-79
2022/04/22 00:26:06;;;;;;;;;;;;;;;;;;5021617;28;20443;-77
2022/04/22 00:28:32;;;;;;;;;;;8.10;1.00;;;;;;5033290;28;19955;-77
2022/04/22 00:30:57;;;;;;;;;;;8.10;1.00;;;;;;5026600;28;20391;-77
2022/04/22 00:33:23;;;;;;;;;;;8.10;1.00;;;;;;5014667;28;19913;-77
2022/04/22 00:35:49;;;;;;;;;;;;;;;;;;5023955;28;19909;-77
2022/04/22 00:38:14;;;;;;;;;;;;;;;;;;5033574;28;20411;-77
2022/04/22 00:40:40;;;;;;;;;;;7.80;1.00;;;;;;5032446;28;19913;-78
2022/04/22 00:43:22;;;;;;;;;;;7.70;1.00;;;;;;5034432;28;20272;-79
2022/04/22 00:45:48;;;;;;;;;;;7.70;1.00;;;;;;5019636;28;20048;-79
2022/04/22 00:48:14;;;;;;;;;;;;;;;;;;5037381;28;19951;-79
2022/04/22 00:50:40;;;;;;;;;;;7.50;1.00;;;;;;5031527;28;19909;-79
2022/04/22 00:53:06;;;;;;;;;;;;;;;;;;5025301;28;20415;-78
2022/04/22 00:55:32;;;;;;;;;;;7.40;1.00;;;;;;5028725;28;19933;-78
2022/04/22 00:57:58;;;;;;;;;;;;;;;;;;5036872;28;19955;-79
2022/04/22 01:00:24;;;;;;;;;;;7.40;1.00;;;;;;5027999;28;19913;-79
2022/04/22 01:02:49;;;;;;;;;;;7.40;1.00;;;;;;5034542;28;19960;-79
2022/04/22 01:10:44;;;;;;;;;;;7.30;1.00;;;;;;5024624;28;20390;-78
2022/04/22 01:13:10;;;;;;;;;;;;;;;;;;5021602;28;19964;-79
2022/04/22 01:15:36;;;;;;;;;;;;;;;;;;5020579;28;19914;-79
2022/04/22 01:18:01;;;;;;;;;;;7.30;1.00;;;;;;5030994;28;19912;-79
2022/04/22 01:20:27;;;;;;;;;;;7.20;1.00;;;;;;5024645;28;19905;-79
2022/04/22 01:22:52;;;;;;;;;;;7.20;1.00;;;;;;5021703;28;19909;-78
2022/04/22 01:25:18;;;;;;;;;;;;;;;;;;5016786;28;19984;-79
2022/04/22 01:27:50;;;;;;;;;;;7.20;1.00;;;;;;5025088;28;19910;-77
2022/04/22 01:30:16;;;;;;;;;;;;;;;;;;5036229;28;19909;-77
2022/04/22 01:32:42;;;;;;;;;;;7.10;1.00;;;;;;5022944;28;20015;-77
2022/04/22 01:35:07;;;;;;;;;;;7.20;1.00;;;;;;5016401;28;20328;-77
2022/04/22 01:37:33;;;;;;;;;;;7.20;1.00;;;;;;5016696;28;19906;-77
2022/04/22 01:39:59;;;;;;;;;;;;;;;;;;5016345;28;20311;-77
2022/04/22 01:42:25;;;;;;;;;;;;;;;;;;5009172;28;19906;-77
2022/04/22 01:44:50;;;;;;;;;;;7.30;1.00;;;;;;5020820;28;20005;-77
2022/04/22 01:47:16;;;;;;;;;;;;;;;;;;5010403;28;20052;-77
2022/04/22 01:49:42;;;;;;;;;;;7.30;1.00;;;;;;5015749;28;19910;-77
2022/04/22 01:52:07;;;;;;;;;;;7.50;1.00;;;;;;5016789;28;20343;-77
2022/04/22 01:54:33;;;;;;;;;;;7.40;1.00;;;;;;5031140;28;19919;-77
2022/04/22 01:56:59;;;;;;;;;;;;;;;;;;5034333;28;20280;-77
2022/04/22 01:59:25;;;;;;;;;;;;;;;;;;5033491;28;19909;-77
2022/04/22 02:01:50;;;;;;;;;;;7.30;1.00;;;;;;5020446;28;20291;-77
2022/04/22 02:04:16;;;;;;;;;;;;;;;;;;5023366;28;19917;-77
2022/04/22 02:06:41;;;;;;;;;;;7.40;1.00;;;;;;5022893;28;19913;-77
2022/04/22 02:09:07;;;;;;;;;;;7.30;1.00;;;;;;5026724;28;19909;-77
2022/04/22 02:11:32;;;;;;;;;;;7.30;1.00;;;;;;5016006;28;19906;-77
2022/04/22 02:13:58;;;;;;;;;;;;;;;;;;5015318;28;19964;-77
2022/04/22 02:16:24;;;;;;;;;;;7.20;1.00;;;;;;5020519;28;19909;-77
2022/04/22 02:18:50;;;;;;;;;;;;;;;;;;5028804;28;20000;-77
2022/04/22 02:21:15;;;;;;;;;;;7.20;1.00;;;;;;5015640;28;19917;-78
2022/04/22 02:23:41;;;;;;;;;;;7.20;1.00;;;;;;5029967;28;19996;-78
2022/04/22 02:26:06;;;;;;;;;;;7.10;1.00;;;;;;5010622;28;19916;-78
2022/04/22 02:28:32;;;;;;;;;;;7.10;1.00;;;;;;5030589;28;19916;-79
2022/04/22 02:30:58;;;;;;;;;;;;;;;;;;5013313;28;20349;-79
2022/04/22 02:33:24;;;;;;;;;;;;;;;;;;5011645;28;20405;-79
2022/04/22 02:35:50;;;;;;;;;;;;;;;;;;5033068;28;19984;-79
2022/04/22 02:38:15;;;;;;;;;;;7.00;1.00;;;;;;5015179;28;19909;-79
2022/04/22 02:46:12;;;;;;;;;;;6.80;1.00;;;;;;5031188;28;19999;-78
2022/04/22 02:48:38;;;;;;;;;;;6.80;1.00;;;;;;5023949;28;19931;-78
2022/04/22 02:51:04;;;;;;;;;;;;;;;;;;5032055;28;20369;-78
2022/04/22 02:53:29;;;;;;;;;;;;;;;;;;5024342;28;20120;-78
2022/04/22 02:55:55;;;;;;;;;;;6.70;1.00;;;;;;5026280;28;19932;-78
2022/04/22 02:58:20;;;;;;;;;;;6.70;1.00;;;;;;5012549;28;19983;-79
2022/04/22 03:00:46;;;;;;;;;;;6.60;1.00;;;;;;5025576;28;20409;-78
2022/04/22 03:03:12;;;;;;;;;;;6.60;1.00;;;;;;5011959;28;20301;-79
2022/04/22 03:05:37;;;;;;;;;;;;;;;;;;5009354;28;19905;-79
2022/04/22 03:08:03;;;;;;;;;;;;;;;;;;5005108;28;19939;-79
2022/04/22 03:10:29;;;;;;;;;;;6.50;1.00;;;;;;5027515;28;19912;-79
2022/04/22 03:12:55;;;;;;;;;;;6.40;1.00;;;;;;5006996;28;19913;-78
2022/04/22 03:15:21;;;;;;;;;;;6.40;1.00;;;;;;5014040;28;19905;-78
2022/04/22 03:17:48;;;;;;;;;;;6.40;1.00;;;;;;5030855;28;19908;-78
2022/04/22 03:20:14;;;;;;;;;;;6.50;1.00;;;;;;5015427;28;20361;-78
2022/04/22 03:22:40;;;;;;;;;;;;;;;;;;5032439;28;19905;-78
2022/04/22 03:25:06;;;;;;;;;;;;;;;;;;5024692;28;19917;-78
2022/04/22 03:27:32;;;;;;;;;;;6.40;1.00;;;;;;5015219;28;19910;-79
2022/04/22 03:29:57;;;;;;;;;;;6.40;1.00;;;;;;5033908;28;19909;-79
2022/04/22 03:32:23;;;;;;;;;;;6.30;1.00;;;;;;5014294;28;20329;-79
2022/04/22 03:34:49;;;;;;;;;;;;;;;;;;5019841;28;19910;-79
2022/04/22 03:37:14;;;;;;;;;;;;;;;;;;5011455;28;19940;-79
2022/04/22 03:39:40;;;;;;;;;;;6.30;1.00;;;;;;5020657;28;20388;-79
2022/04/22 03:42:06;;;;;;;;;;;;;;;;;;5012026;28;19922;-79
2022/04/22 03:44:31;;;;;;;;;;;6.40;1.00;;;;;;5023515;28;19941;-79
2022/04/22 03:46:57;;;;;;;;;;;6.40;1.00;;;;;;5015735;28;20364;-79
2022/04/22 03:49:22;;;;;;;;;;;6.40;1.00;;;;;;5026699;28;19912;-79
2022/04/22 03:51:48;;;;;;;;;;;6.40;1.00;;;;;;5013771;28;19912;-79
2022/04/22 03:54:18;;;;;;;;;;;;;;;;;;5031946;28;19909;-79
2022/04/22 03:59:28;;;;;;;;;;;;;;;;;;5001931;28;19916;-78
2022/04/22 04:01:54;;;;;;;;;;;6.40;1.00;;;;;;5001960;28;19913;-78
2022/04/22 04:04:20;;;;;;;;;;;6.40;1.00;;;;;;5020766;28;19917;-78
2022/04/22 04:06:46;;;;;;;;;;;;;;;;;;5019583;28;19913;-78
2022/04/22 04:17:25;;;;;;;;;;;;;;;;;;5018688;28;19912;-78
2022/04/22 04:25:19;;;;;;;;;;;6.50;1.00;;;;;;5004122;28;20388;-78
2022/04/22 04:27:46;;;;;;;;;;;;;;;;;;5014942;28;19948;-78
2022/04/22 04:30:12;;;;;;;;;;;6.60;1.00;;;;;;5025599;28;20383;-78
2022/04/22 04:32:37;;;;;;;;;;;6.60;1.00;;;;;;5022823;28;19909;-78
2022/04/22 04:35:03;;;;;;;;;;;6.70;1.00;;;;;;5029909;28;19905;-78
2022/04/22 04:37:29;;;;;;;;;;;;;;;;;;5023640;28;20269;-78
2022/04/22 04:39:55;;;;;;;;;;;;;;;;;;5026306;28;19952;-78
2022/04/22 04:42:21;;;;;;;;;;;6.70;1.00;;;;;;5012843;28;20357;-78
2022/04/22 04:44:46;;;;;;;;;;;6.80;1.00;;;;;;5032833;28;20008;-78
2022/04/22 04:47:12;;;;;;;;;;;;;;;;;;5030019;28;19906;-78
2022/04/22 04:49:38;;;;;;;;;;;6.80;1.00;;;;;;5020773;28;19962;-79
2022/04/22 04:52:04;;;;;;;;;;;;;;;;;;5026351;28;19952;-79
2022/04/22 04:54:29;;;;;;;;;;;;;;;;;;5004534;28;19920;-78
2022/04/22 04:56:55;;;;;;;;;;;6.90;1.00;;;;;;5012866;28;19951;-78
2022/04/22 04:59:22;;;;;;;;;;;7.00;1.00;;;;;;5001677;28;19956;-78
2022/04/22 05:01:47;;;;;;;;;;;7.10;1.00;;;;;;5008018;28;19913;-80
2022/04/22 05:04:13;;;;;;;;;;;;;;;;;;5019851;28;20342;-83
2022/04/22 05:06:40;;;;;;;;;;;7.10;1.00;;;;;;5019301;28;19909;-82
2022/04/22 05:09:05;;;;;;;;;;;7.20;1.00;;;;;;5017022;28;19959;-83
2022/04/22 05:11:31;;;;;;;;;;;7.20;1.00;;;;;;5023455;28;19909;-82
2022/04/22 05:13:58;;;;;;;;;;;7.30;1.00;;;;;;5015275;28;20279;-73
2022/04/22 05:16:24;;;;;;;;;;;;;;;;;;5012761;28;19906;-74
2022/04/22 05:18:50;;;;;;;;;;;;;;;;;;5026971;28;20004;-74
2022/04/22 05:21:16;;;;;;;;;;;7.50;1.00;;;;;;5024636;28;19932;-74
2022/04/22 05:23:41;;;;;;;;;;;7.60;1.00;;;;;;5021345;28;19916;-74
2022/04/22 05:26:12;;;;;;;;;;;7.60;1.00;;;;;;5020173;28;19909;-74
2022/04/22 05:28:38;;;;;;;;;;;7.60;1.00;;;;;;5017629;28;19909;-74
2022/04/22 05:33:48;;;;;;;;;;;7.80;1.00;;;;;;5019810;28;19920;-72
2022/04/22 05:36:14;;;;;;;;;;;;;;;;;;5020179;28;20281;-73
2022/04/22 05:38:41;;;;;;;;;;;;;;;;;;5012111;28;20312;-73
2022/04/22 05:41:06;;;;;;;;;;;8.20;1.00;;;;;;5016266;28;20324;-73
2022/04/22 05:43:32;;;;;;;;;;;8.30;1.00;;;;;;5024862;28;19909;-73
2022/04/22 05:45:58;;;;;;;;;;;8.30;1.00;;;;;;5018507;28;20018;-72
2022/04/22 05:48:24;;;;;;;;;;;;;;;;;;5034619;28;20271;-72
2022/04/22 05:50:50;;;;;;;;;;;;;;;;;;5015022;28;20365;-73
2022/04/22 05:53:16;;;;;;;;;;;;;;;;;;5023723;28;19917;-72
2022/04/22 05:55:42;;;;;;;;;;;8.90;1.00;;;;;;5019545;28;19910;-73
2022/04/22 05:58:07;;;;;;;;;;;9.00;1.00;;;;;;5026076;28;19956;-73
2022/04/22 06:00:33;;;;;;;;;;;;;;;;;;5013742;28;19985;-73
2022/04/22 06:02:59;;;;;;;;;;;;;;;;;;5002177;28;20365;-73
2022/04/22 06:05:25;;;;;;;;;;;;;;;;;;5021541;28;20360;-72
2022/04/22 06:10:36;;;;;;;;;;;;;;;;;;5013697;28;20017;-72
2022/04/22 06:13:03;;;;;;;;;;;9.50;1.00;;;;;;5012785;28;20004;-80
2022/04/22 06:15:29;;;;;;;;;;;;;;;;;;5010386;28;19979;-72
2022/04/22 06:17:54;;;;;;;;;;;9.70;1.00;;;;;;5011386;28;20338;-72
2022/04/22 06:20:20;;;;;;;;;;;;;;;;;;5019710;28;19913;-72
2022/04/22 06:22:46;;;;;;;;;;;;;;;;;;5030040;28;19905;-72
2022/04/22 06:25:12;;;;;;;;;;;9.90;1.00;;;;;;5028437;28;19927;-73
2022/04/22 06:27:38;;;;;;;;;;;10.10;1.00;;;;;;5012770;28;19936;-73
2022/04/22 06:30:06;;;;;;;;;;;10.10;1.00;;;;;;5016468;28;19955;-72
2022/04/22 06:32:32;;;;;;;;;;;10.20;1.00;;;;;;5020258;28;19909;-72
2022/04/22 06:34:57;;;;;;;;;;;10.30;1.00;;;;;;5030640;28;19962;-72
2022/04/22 06:37:23;;;;;;;;;;;10.40;1.00;;;;;;5014154;28;20055;-72
2022/04/22 06:48:02;;;;;;;;;;;;;;;;;;5001790;28;20288;-72
2022/04/22 06:50:28;;;;;;;;;;;10.90;1.00;;;;;;5003439;28;19999;-72
2022/04/22 06:52:54;;;;;;;;;;;;;;;;;;5017208;28;20001;-72
2022/04/22 06:55:20;;;;;;;;;;;11.00;1.00;;;;;;5024371;28;19996;-72
2022/04/22 06:57:47;;;;;;;;;;;;;;;;;;5015108;28;19913;-72
2022/04/22 07:00:13;;;;;;;;;;;;;;;;;;5002553;28;19963;-81
2022/04/22 07:02:39;;;;;;;;;;;;;;;;;;5007376;28;20002;-81
2022/04/22 07:05:05;;;;;;;;;;;;;;;;;;5013316;28;20304;-82
2022/04/22 07:07:31;;;;;;;;;;;11.40;1.00;;;;;;5009553;28;19905;-81
2022/04/22 07:10:00;;;;;;;;;;;;;;;;;;5015789;28;19924;-82
2022/04/22 07:12:26;;;;;;;;;;;11.50;1.00;;;;;;5034883;28;20093;-83
2022/04/22 07:14:57;;;;;;;;;;;11.50;1.00;;;;;;5019468;28;19909;-72
2022/04/22 07:17:23;;;;;;;;;;;11.70;1.00;;;;;;5023687;28;19916;-72
2022/04/22 07:19:49;;;;;;;;;;;;;;;;;;5017111;28;19905;-82
2022/04/22 07:22:14;;;;;;;;;;;11.90;1.00;;;;;;5020921;28;19953;-82
2022/04/22 07:24:40;;;;;;;;;;;;;;;;;;5012015;28;20353;-77
2022/04/22 07:27:06;;;;;;;;;;;;;;;;;;5032627;28;19909;-77
2022/04/22 07:29:36;;;;;;;;;;;12.30;1.00;;;;;;5024592;28;20379;-79
2022/04/22 07:32:02;;;;;;;;;;;12.30;1.00;;;;;;5013717;28;20261;-82
2022/04/22 07:34:28;;;;;;;;;;;12.40;1.00;;;;;;5014982;28;19909;-80
2022/04/22 07:36:53;;;;;;;;;;;12.50;1.00;;;;;;5033533;28;19916;-80
2022/04/22 07:39:19;;;;;;;;;;;;;;;;;;5026731;28;20014;-80
2022/04/22 07:41:45;;;;;;;;;;;;;;;;;;5016715;28;19913;-80
2022/04/22 07:46:58;;;;;;;;;;;;;;;;;;5033471;28;20366;-79
2022/04/22 07:49:26;;;;;;;;;;;;;;;;;;5028455;28;19905;-80
2022/04/22 07:51:52;;;;;;;;;;;;;;;;;;5032852;28;19909;-79
2022/04/22 07:54:17;;;;;;;;;;;12.90;99.90;;;;;;5031701;28;19913;-79
2022/04/22 07:56:43;;;;;;;;;;;13.10;99.90;;;;;;5030884;28;20329;-79
2022/04/22 07:59:08;;;;;;;;;;;13.20;99.90;;;;;;5019840;28;19924;-78
2022/04/22 08:01:34;;;;;;;;;;;;;;;;;;5025349;28;19932;-79
2022/04/22 08:04:01;;;;;;;;;;;;;;;;;;5015005;28;19936;-79
2022/04/22 08:06:27;;;;;;;;;;;13.40;99.90;;;;;;5033518;28;19979;-79
2022/04/22 08:08:53;;;;;;;;;;;13.60;99.90;;;;;;5022003;28;20379;-79
2022/04/22 08:11:20;;;;;;;;;;;13.70;99.90;;;;;;5033499;28;19905;-80
2022/04/22 08:13:45;;;;;;;;;;;13.80;99.90;;;;;;5021697;28;19909;-80
2022/04/22 08:16:12;;;;;;;;;;;13.90;99.90;;;;;;5020459;28;19916;-80
2022/04/22 08:18:37;;;;;;;;;;;14.10;99.90;;;;;;4993402;28;19912;-79
2022/04/22 08:21:03;;;;;;;;;;;14.00;99.90;;;;;;5006133;28;19909;-80
2022/04/22 08:23:29;;;;;;;;;;;;;;;;;;5013460;28;19909;-80
2022/04/22 08:25:55;;;;;;;;;;;;;;;;;;5003103;28;19909;-80
2022/04/22 08:28:20;;;;;;;;;;;14.40;99.90;;;;;;5029353;28;19937;-80
2022/04/22 08:30:46;;;;;;;;;;;14.50;99.90;;;;;;5015882;28;19984;-75
2022/04/22 08:33:12;;;;;;;;;;;;;;;;;;5031764;28;20003;-76
2022/04/22 08:35:37;;;;;;;;;;;14.70;99.90;;;;;;5024598;28;19913;-76
2022/04/22 08:38:05;;;;;;;;;;;14.70;99.90;;;;;;5013352;28;19959;-76
2022/04/22 08:40:31;;;;;;;;;;;14.80;99.90;;;;;;5007360;28;19910;-76
2022/04/22 08:43:00;;;;;;;;;;;14.80;99.90;;;;;;5024122;28;19936;-76
2022/04/22 08:45:26;;;;;;;;;;;15.10;99.90;;;;;;5013398;28;19910;-79
2022/04/22 08:50:37;;;;;;;;;;;15.30;99.90;;;;;;5023228;28;20055;-79
2022/04/22 08:53:06;;;;;;;;;;;15.50;99.90;;;;;;5033032;28;19906;-79
2022/04/22 08:55:33;;;;;;;;;;;15.40;99.90;;;;;;5022952;28;19966;-79
2022/04/22 08:58:05;;;;;;;;;;;15.50;99.90;;;;;;5011670;28;20357;-79
2022/04/22 09:00:34;;;;;;;;;;;15.50;99.90;;;;;;5015732;28;19910;-79
2022/04/22 09:03:00;;;;;;;;;;;;;;;;;;5016169;28;19921;-80
2022/04/22 09:05:26;;;;;;;;;;;15.80;99.90;;;;;;5014830;28;20006;-79
2022/04/22 09:07:53;;;;;;;;;;;15.90;99.90;;;;;;5026947;28;19912;-79
2022/04/22 09:10:18;;;;;;;;;;;16.00;99.90;;;;;;5030768;28;19909;-79
2022/04/22 09:12:44;;;;;;;;;;;;;;;;;;5028032;28;19984;-79
2022/04/22 09:15:10;;;;;;;;;;;;;;;;;;5018315;28;20327;-79
2022/04/22 09:17:37;;;;;;;;;;;16.30;99.90;;;;;;5036681;28;19966;-79
2022/04/22 09:20:04;;;;;;;;;;;16.30;99.90;;;;;;5030378;28;20315;-80
2022/04/22 09:22:30;;;;;;;;;;;;;;;;;;5029653;28;19963;-79
2022/04/22 09:24:56;;;;;;;;;;;16.40;99.90;;;;;;5016510;28;19910;-80
2022/04/22 09:27:30;;;;;;;;;;;16.50;99.90;;;;;;5015223;28;20008;-80
2022/04/22 09:29:56;;;;;;;;;;;16.40;99.90;;;;;;5022148;28;19988;-79
2022/04/22 09:32:26;;;;;;;;;;;16.40;99.90;;;;;;5016569;28;19948;-80
2022/04/22 09:34:52;;;;;;;;;;;16.50;99.90;;;;;;5015311;28;19908;-79
2022/04/22 09:42:48;;;;;;;;;;;16.90;99.90;;;;;;5016179;28;20326;-80
2022/04/22 09:45:14;;;;;;;;;;;17.20;99.90;;;;;;5005393;28;19909;-79
2022/04/22 09:47:40;;;;;;;;;;;17.30;99.90;;;;;;5013470;28;20375;-80
2022/04/22 09:50:11;;;;;;;;;;;17.30;99.90;;;;;;5015684;28;19909;-78
2022/04/22 09:52:44;;;;;;;;;;;17.30;99.90;;;;;;5016260;28;19909;-80
2022/04/22 09:55:10;;;;;;;;;;;;;;;;;;5001152;28;19992;-79
2022/04/22 09:57:54;;;;;;;;;;;17.50;99.90;;;;;;5028298;28;20003;-80
2022/04/22 10:00:23;;;;;;;;;;;17.70;99.90;;;;;;5016059;28;19917;-75
2022/04/22 10:02:52;;;;;;;;;;;;;;;;;;5015856;28;19944;-76
2022/04/22 10:05:19;;;;;;;;;;;17.90;99.90;;;;;;5009433;28;19913;-76
2022/04/22 10:07:44;;;;;;;;;;;17.90;99.90;;;;;;5026435;28;19909;-76
2022/04/22 10:10:10;;;;;;;;;;;;;;;;;;5035314;28;20004;-76
2022/04/22 10:12:36;;;;;;;;;;;18.00;99.90;;;;;;5026893;28;20352;-76
2022/04/22 10:15:03;;;;;;;;;;;17.90;99.90;;;;;;5007765;28;19914;-76
2022/04/22 10:17:29;;;;;;;;;;;;;;;;;;5026145;28;19909;-80
2022/04/22 10:19:55;;;;;;;;;;;;;;;;;;5015503;28;19924;-79
2022/04/22 10:22:21;;;;;;;;;;;18.10;99.90;;;;;;5015748;28;19906;-79
2022/04/22 10:24:49;;;;;;;;;;;18.10;99.90;;;;;;5002675;28;19924;-79
2022/04/22 10:27:15;;;;;;;;;;;;;;;;;;5013288;28;19972;-80
2022/04/22 10:29:42;;;;;;;;;;;18.50;99.90;;;;;;5015446;28;20316;-80
2022/04/22 10:32:09;;;;;;;;;;;18.50;99.90;;;;;;5021537;28;20398;-81
2022/04/22 10:34:35;;;;;;;;;;;;;;;;;;5024363;28;19909;-81
2022/04/22 10:37:00;;;;;;;;;;;;;;;;;;5035230;28;20323;-82
2022/04/22 10:39:31;;;;;;;;;;;18.50;99.90;;;;;;5014963;28;20004;-81
2022/04/22 10:41:56;;;;;;;;;;;18.60;99.90;;;;;;5017363;28;20417;-82
2022/04/22 10:47:15;;;;;;;;;;;18.90;99.90;;;;;;5012284;28;19915;-79
2022/04/22 10:49:44;;;;;;;;;;;19.00;99.90;;;;;;5018537;28;19945;-73
2022/04/22 10:52:11;;;;;;;;;;;;;;;;;;5012961;28;19913;-73
2022/04/22 10:54:59;;;;;;;;;;;18.90;99.90;;;;;;5010564;28;19920;-73
2022/04/22 10:57:25;;;;;;;;;;;;;;;;;;4986665;28;19916;-73
2022/04/22 11:00:05;;;;;;;;;;;18.60;99.90;;;;;;4989424;28;19910;-72
2022/04/22 11:02:30;;;;;;;;;;;;;;;;;;4984161;28;20012;-71
2022/04/22 11:05:14;;;;;;;;;;;18.70;99.90;;;;;;4981283;28;20004;-72
2022/04/22 11:07:40;;;;;;;;;;;;;;;;;;4976154;28;19916;-72
2022/04/22 11:10:06;;;;;;;;;;;;;;;;;;4972836;28;20004;-72
2022/04/22 11:12:57;;;;;;;;;;;19.30;99.90;;;;;;4984231;28;20341;-75
2022/04/22 11:15:22;;;;;;;;;;;;;;;;;;4984992;28;19916;-80
2022/04/22 11:17:54;;;;;;;;;;;19.70;99.90;;;;;;4991604;28;20395;-77
2022/04/22 11:20:20;;;;;;;;;;;;;;;;;;4967374;28;20577;-72
2022/04/22 11:22:58;;;;;;;;;;;20.10;99.90;;;;;;4990384;28;20412;-72
2022/04/22 11:25:25;;;;;;;;;;;;;;;;;;4999145;28;19992;-83
2022/04/22 11:27:51;;;;;;;;;;;;;;;;;;4972414;28;20407;-83
2022/04/22 11:30:17;;;;;;;;;;;20.60;99.90;;;;;;4975468;28;19916;-83
2022/04/22 11:32:42;;;;;;;;;;;;;;;;;;4991075;28;19910;-72
2022/04/22 11:35:18;;;;;;;;;;;20.60;99.90;;;;;;5002657;28;19952;-72
2022/04/22 11:37:44;;;;;;;;;;;;;;;;;;5027690;28;19996;-72
2022/04/22 11:40:10;;;;;;;;;;;;;;;;;;5026408;28;20155;-71
2022/04/22 11:42:43;;;;;;;;;;;20.10;99.90;;;;;;5013149;28;19909;-72
2022/04/22 11:45:11;;;;;;;;;;;;;;;;;;5021933;28;19913;-72
2022/04/22 11:47:37;;;;;;;;;;;20.10;99.90;;;;;;5019670;28;19999;-74
2022/04/22 11:50:03;;;;;;;;;;;20.10;99.90;;;;;;5027594;28;19988;-74
2022/04/22 11:52:31;;;;;;;;;;;20.20;99.90;;;;;;5010699;28;20265;-73
2022/04/22 11:54:57;;;;;;;;;;;;;;;;;;5016375;28;19913;-73
2022/04/22 11:57:23;;;;;;;;;;;20.10;99.90;;;;;;5028874;28;19931;-73
2022/04/22 12:05:32;;;;;;;;;;;20.10;99.90;;;;;;5007905;28;19993;-73
2022/04/22 12:05:34;;;;;;;;;;;20.10;99.90;;;;;;4999584;28;19963;-74
2022/04/22 12:08:07;;;;;;;;;;;20.20;99.90;;;;;;5012882;28;20000;-74
2022/04/22 12:10:33;;;;;;;;;;;20.30;99.90;;;;;;5033286;28;20353;-73
2022/04/22 12:13:00;;;;;;;;;;;;;;;;;;5016106;28;19997;-73
2022/04/22 12:15:27;;;;;;;;;;;20.60;99.90;;;;;;5011586;28;19910;-73
2022/04/22 12:17:52;;;;;;;;;;;20.60;99.90;;;;;;5030712;28;20360;-71
2022/04/22 12:20:18;;;;;;;;;;;20.60;99.90;;;;;;5022702;28;19912;-70
2022/04/22 12:22:44;;;;;;;;;;;;;;;;;;5013231;28;19951;-70
2022/04/22 12:25:13;;;;;;;;;;;;;;;;;;5019119;28;19909;-70
2022/04/22 12:27:39;;;;;;;;;;;21.10;99.90;;;;;;5008234;28;19948;-71
2022/04/22 12:30:05;;;;;;;;;;;;;;;;;;5026138;28;19975;-69
2022/04/22 12:32:31;;;;;;;;;;;21.80;99.90;;;;;;5023116;28;20376;-70
2022/04/22 12:35:13;;;;;;;;;;;21.90;99.90;;;;;;5024932;28;20332;-69
2022/04/22 12:37:49;;;;;;;;;;;22.00;99.90;;;;;;5030598;28;19913;-70
2022/04/22 12:40:15;;;;;;;;;;;;;;;;;;5016584;28;19906;-70
2022/04/22 12:42:41;;;;;;;;;;;21.80;99.90;;;;;;5016673;28;20444;-70
2022/04/22 12:53:20;;;;;;;;;;;;;;;;;;5024963;28;19920;-77
2022/04/22 12:55:48;;;;;;;;;;;;;;;;;;5026347;28;20269;-77
2022/04/22 12:58:15;;;;;;;;;;;;;;;;;;5028812;28;19913;-77
2022/04/22 13:00:41;;;;;;;;;;;22.90;99.90;;;;;;5017115;28;19944;-75
2022/04/22 13:03:08;;;;;;;;;;;23.20;99.90;;;;;;5026081;28;20375;-75
2022/04/22 13:05:34;;;;;;;;;;;;;;;;;;5016191;28;19910;-76
2022/04/22 13:08:00;;;;;;;;;;;;;;;;;;5018226;28;19912;-75
2022/04/22 13:10:25;;;;;;;;;;;23.10;99.90;;;;;;5016819;28;19905;-75
2022/04/22 13:12:51;;;;;;;;;;;22.90;99.90;;;;;;5007578;28;19952;-75
2022/04/22 13:15:18;;;;;;;;;;;22.70;99.90;;;;;;5009829;28;19920;-77
2022/04/22 13:17:44;;;;;;;;;;;;;;;;;;5029230;28;19913;-76
2022/04/22 13:20:12;;;;;;;;;;;;;;;;;;5026877;28;19909;-77
2022/04/22 13:22:38;;;;;;;;;;;;;;;;;;5027241;28;19909;-77
2022/04/22 13:25:04;;;;;;;;;;;22.70;99.90;;;;;;5036299;28;19916;-77
2022/04/22 13:27:29;;;;;;;;;;;;;;;;;;5036137;28;19909;-76
2022/04/22 13:29:55;;;;;;;;;;;;;;;;;;5036306;28;19905;-80
2022/04/22 13:32:21;;;;;;;;;;;22.60;99.90;;;;;;5029776;28;20353;-78
2022/04/22 13:34:46;;;;;;;;;;;22.90;99.90;;;;;;5036194;28;19909;-79
2022/04/22 13:37:12;;;;;;;;;;;23.20;99.90;;;;;;5032514;28;19909;-79
2022/04/22 13:39:38;;;;;;;;;;;23.40;99.90;;;;;;5014856;28;19905;-82
2022/04/22 13:42:04;;;;;;;;;;;;;;;;;;5020567;28;20008;-81
2022/04/22 13:52:43;;;;;;;;;;;22.90;99.90;;;;;;5010058;28;19932;-75
2022/04/22 13:55:09;;;;;;;;;;;;;;;;;;5012699;28;20361;-74
2022/04/22 13:57:35;;;;;;;;;;;;;;;;;;5035814;28;19905;-75
2022/04/22 14:00:01;;;;;;;;;;;22.60;99.90;;;;;;5026494;28;19912;-75
2022/04/22 14:02:26;;;;;;;;;;;22.70;99.90;;;;;;5015985;28;19967;-75
2022/04/22 14:04:52;;;;;;;;;;;22.70;99.90;;;;;;5016832;28;20016;-75
2022/04/22 14:07:17;;;;;;;;;;;22.60;99.90;;;;;;5025997;28;19905;-75
2022/04/22 14:09:43;;;;;;;;;;;22.60;99.90;;;;;;5035606;28;19928;-75
2022/04/22 14:12:09;;;;;;;;;;;22.80;99.90;;;;;;5029202;28;20008;-75
2022/04/22 14:14:37;;;;;;;;;;;;;;;;;;5015507;28;19913;-75
2022/04/22 14:17:02;;;;;;;;;;;23.20;99.90;;;;;;5015671;28;19916;-75
2022/04/22 14:19:28;;;;;;;;;;;23.50;99.90;;;;;;5023279;28;19906;-69
2022/04/22 14:21:54;;;;;;;;;;;23.70;99.90;;;;;;5012583;28;19937;-70
2022/04/22 14:24:20;;;;;;;;;;;;;;;;;;5007544;28;19967;-69
2022/04/22 14:26:46;;;;;;;;;;;23.30;99.90;;;;;;5031060;28;19913;-69
2022/04/22 14:29:12;;;;;;;;;;;23.00;99.90;;;;;;5019968;28;19909;-69
2022/04/22 14:31:38;;;;;;;;;;;;;;;;;;5014595;28;19915;-69
2022/04/22 14:34:04;;;;;;;;;;;;;;;;;;5018440;28;19924;-69
2022/04/22 14:36:31;;;;;;;;;;;;;;;;;;5012124;28;20394;-69
2022/04/22 14:38:56;;;;;;;;;;;22.40;99.90;;;;;;5034843;28;19912;-69
2022/04/22 14:41:25;;;;;;;;;;;22.40;99.90;;;;;;5035229;28;19905;-88
2022/04/22 14:43:51;;;;;;;;;;;22.40;99.90;;;;;;5021278;28;19971;-88
2022/04/22 14:46:17;;;;;;;;;;;22.30;99.90;;;;;;5023001;28;20396;-89
2022/04/22 14:48:43;;;;;;;;;;;22.20;99.90;;;;;;5010851;28;19910;-85
2022/04/22 14:51:08;;;;;;;;;;;22.20;99.90;;;;;;5024186;28;19912;-89
2022/04/22 14:53:35;;;;;;;;;;;;;;;;;;5014836;28;20277;-84
2022/04/22 14:56:00;;;;;;;;;;;;;;;;;;5030510;28;19909;-84
2022/04/22 14:58:26;;;;;;;;;;;;;;;;;;5025461;28;20028;-84
2022/04/22 15:00:55;;;;;;;;;;;21.80;99.90;;;;;;5013720;28;20309;-84
2022/04/22 15:03:21;;;;;;;;;;;;;;;;;;5024924;28;19928;-84
2022/04/22 15:05:47;;;;;;;;;;;21.80;99.90;;;;;;4999785;28;19910;-83
2022/04/22 15:08:13;;;;;;;;;;;21.80;99.90;;;;;;5023813;28;20276;-86
2022/04/22 15:10:39;;;;;;;;;;;;;;;;;;5008463;28;19917;-81
2022/04/22 15:13:07;;;;;;;;;;;;;;;;;;5014557;28;19939;-91
2022/04/22 15:15:32;;;;;;;;;;;22.70;99.90;;;;;;5015468;28;19995;-90
2022/04/22 15:26:11;;;;;;;;;;;;;;;;;;5026689;28;19971;-80
2022/04/22 15:28:37;;;;;;;;;;;24.80;99.90;;;;;;5033872;28;19905;-72
2022/04/22 15:31:03;;;;;;;;;;;24.40;99.90;;;;;;5018775;28;19906;-71
2022/04/22 15:33:30;;;;;;;;;;;23.70;99.90;;;;;;5019330;28;19905;-71
2022/04/22 15:36:01;;;;;;;;;;;23.20;99.90;;;;;;5011720;28;19917;-74
2022/04/22 15:38:29;;;;;;;;;;;22.90;99.90;;;;;;5003085;28;19909;-72
2022/04/22 15:40:54;;;;;;;;;;;22.80;99.90;;;;;;5013537;28;20352;-71
2022/04/22 15:43:20;;;;;;;;;;;;;;;;;;5025154;28;19919;-72
2022/04/22 15:45:46;;;;;;;;;;;23.00;99.90;;;;;;5014756;28;19999;-70
2022/04/22 15:48:12;;;;;;;;;;;23.20;99.90;;;;;;5014181;28;20392;-77
2022/04/22 15:50:37;;;;;;;;;;;23.00;99.90;;;;;;5016300;28;20343;-71
2022/04/22 15:53:03;;;;;;;;;;;22.70;99.90;;;;;;5012956;28;19912;-71
2022/04/22 15:55:29;;;;;;;;;;;22.20;99.90;;;;;;5020576;28;19909;-71
2022/04/22 15:57:54;;;;;;;;;;;;;;;;;;5023435;28;19912;-71
2022/04/22 16:00:20;;;;;;;;;;;;;;;;;;5033326;28;19913;-71
2022/04/22 16:02:46;;;;;;;;;;;21.40;99.90;;;;;;5028924;28;19944;-71
2022/04/22 16:05:14;;;;;;;;;;;21.10;99.90;;;;;;5032645;28;19984;-76
2022/04/22 16:07:40;;;;;;;;;;;;;;;;;;5033357;28;19905;-77
2022/04/22 16:10:06;;;;;;;;;;;20.90;99.90;;;;;;5030812;28;20288;-75
2022/04/22 16:15:16;;;;;;;;;;;20.70;99.90;;;;;;5021133;28;20268;-75
2022/04/22 16:17:42;;;;;;;;;;;20.80;99.90;;;;;;5020592;28;19905;-70
2022/04/22 16:20:07;;;;;;;;;;;20.90;99.90;;;;;;5033495;28;19913;-70
2022/04/22 16:22:34;;;;;;;;;;;21.30;99.90;;;;;;5029649;28;20257;-70
2022/04/22 16:25:00;;;;;;;;;;;;;;;;;;5005632;28;19916;-70
2022/04/22 16:27:26;;;;;;;;;;;;;;;;;;5016551;28;19983;-70
2022/04/22 16:29:52;;;;;;;;;;;22.80;99.90;;;;;;5026151;28;19917;-70
2022/04/22 16:32:18;;;;;;;;;;;;;;;;;;5013855;28;19909;-70
2022/04/22 16:34:49;;;;;;;;;;;22.30;99.90;;;;;;5021773;28;19909;-77
2022/04/22 16:37:15;;;;;;;;;;;;;;;;;;5004225;28;19937;-77